sensor_id;sensor_type;location;lat;lon;timestamp;pressure;altitude;pressure_sealevel;temperature;humidity
18022;BME280;9136;48.822;7.966;2023-04-09T00:01:46;100900.22;;;8.84;100.00
18022;BME280;9136;48.822;7.966;2023-04-09T00:04:34;100896.81;;;8.79;100.00
18022;BME280;9136;48.822;7.966;2023-04-09T00:07:23;100904.75;;;8.75;100.00
18022;BME280;9136;48.822;7.966;2023-04-09T00:10:17;100896.91;;;8.73;100.00
18022;BME280;9136;48.822;7.966;2023-04-09T00:13:07;100898.66;;;8.73;100.00
18022;BME280;9136;48.822;7.966;2023-04-09T00:15:55;100915.91;;;8.87;100.00
18022;BME280;9136;48.822;7.966;2023-04-09T00:18:43;100933.34;;;8.90;100.00
18022;BME280;9136;48.822;7.966;2023-04-09T00:21:33;100919.41;;;8.88;100.00
18022;BME280;9136;48.822;7.966;2023-04-09T00:24:21;100907.22;;;8.84;100.00
18022;BME280;9136;48.822;7.966;2023-04-09T00:27:10;100901.22;;;8.76;100.00
18022;BME280;9136;48.822;7.966;2023-04-09T00:30:00;100915.06;;;8.85;100.00
18022;BME280;9136;48.822;7.966;2023-04-09T00:32:49;100898.59;;;8.76;100.00
18022;BME280;9136;48.822;7.966;2023-04-09T00:35:38;100895.16;;;8.74;100.00
18022;BME280;9136;48.822;7.966;2023-04-09T00:38:26;100896.06;;;8.71;100.00
18022;BME280;9136;48.822;7.966;2023-04-09T00:41:16;100896.81;;;8.78;100.00
18022;BME280;9136;48.822;7.966;2023-04-09T00:44:07;100903.78;;;8.80;100.00
18022;BME280;9136;48.822;7.966;2023-04-09T00:46:57;100905.56;;;8.77;100.00
18022;BME280;9136;48.822;7.966;2023-04-09T00:49:48;100905.56;;;8.78;100.00
18022;BME280;9136;48.822;7.966;2023-04-09T00:52:36;100907.31;;;8.79;100.00
18022;BME280;9136;48.822;7.966;2023-04-09T00:55:27;100902.97;;;8.75;100.00
18022;BME280;9136;48.822;7.966;2023-04-09T00:58:16;100927.31;;;8.83;100.00
18022;BME280;9136;48.822;7.966;2023-04-09T01:01:06;100897.03;;;8.64;100.00
18022;BME280;9136;48.822;7.966;2023-04-09T01:03:59;100916.06;;;8.77;100.00
18022;BME280;9136;48.822;7.966;2023-04-09T01:06:50;100900.59;;;8.60;100.00
18022;BME280;9136;48.822;7.966;2023-04-09T01:09:52;100891.06;;;8.54;100.00
18022;BME280;9136;48.822;7.966;2023-04-09T01:12:51;100929.31;;;8.65;100.00
18022;BME280;9136;48.822;7.966;2023-04-09T01:15:46;100911.97;;;8.56;100.00
18022;BME280;9136;48.822;7.966;2023-04-09T01:18:38;100929.31;;;8.65;100.00
18022;BME280;9136;48.822;7.966;2023-04-09T01:21:31;100884.22;;;8.44;100.00
18022;BME280;9136;48.822;7.966;2023-04-09T01:24:31;100884.25;;;8.43;100.00
18022;BME280;9136;48.822;7.966;2023-04-09T01:27:36;100887.66;;;8.46;100.00
18022;BME280;9136;48.822;7.966;2023-04-09T01:30:27;100909.34;;;8.56;100.00
18022;BME280;9136;48.822;7.966;2023-04-09T01:33:16;100903.28;;;8.54;100.00
18022;BME280;9136;48.822;7.966;2023-04-09T01:36:06;100892.13;;;8.41;100.00
18022;BME280;9136;48.822;7.966;2023-04-09T01:38:56;100882.59;;;8.32;100.00
18022;BME280;9136;48.822;7.966;2023-04-09T01:41:45;100882.56;;;8.36;100.00
18022;BME280;9136;48.822;7.966;2023-04-09T01:44:35;100913.00;;;8.46;100.00
18022;BME280;9136;48.822;7.966;2023-04-09T01:47:27;100922.59;;;8.45;100.00
18022;BME280;9136;48.822;7.966;2023-04-09T01:50:21;100911.41;;;8.29;100.00
18022;BME280;9136;48.822;7.966;2023-04-09T01:53:12;100888.97;;;8.09;100.00
18022;BME280;9136;48.822;7.966;2023-04-09T01:56:03;100900.34;;;8.06;100.00
18022;BME280;9136;48.822;7.966;2023-04-09T01:58:53;100892.56;;;8.01;100.00
18022;BME280;9136;48.822;7.966;2023-04-09T02:01:48;100920.38;;;8.12;100.00
18022;BME280;9136;48.822;7.966;2023-04-09T02:04:46;100921.34;;;8.01;100.00
18022;BME280;9136;48.822;7.966;2023-04-09T02:07:37;100918.78;;;7.95;100.00
18022;BME280;9136;48.822;7.966;2023-04-09T02:10:30;100940.53;;;8.02;100.00
18022;BME280;9136;48.822;7.966;2023-04-09T02:13:22;100915.41;;;7.86;100.00
18022;BME280;9136;48.822;7.966;2023-04-09T02:16:12;100901.63;;;7.68;100.00
18022;BME280;9136;48.822;7.966;2023-04-09T02:19:03;100904.25;;;7.67;100.00
18022;BME280;9136;48.822;7.966;2023-04-09T02:21:55;100924.28;;;7.72;100.00
18022;BME280;9136;48.822;7.966;2023-04-09T02:24:45;100931.22;;;7.73;100.00
18022;BME280;9136;48.822;7.966;2023-04-09T02:27:36;100914.84;;;7.52;100.00
18022;BME280;9136;48.822;7.966;2023-04-09T02:30:30;100892.38;;;7.32;100.00
18022;BME280;9136;48.822;7.966;2023-04-09T02:33:18;100937.50;;;7.54;100.00
18022;BME280;9136;48.822;7.966;2023-04-09T02:36:11;100895.84;;;7.37;100.00
18022;BME280;9136;48.822;7.966;2023-04-09T02:39:03;100913.19;;;7.43;100.00
18022;BME280;9136;48.822;7.966;2023-04-09T02:41:51;100894.19;;;7.27;100.00
18022;BME280;9136;48.822;7.966;2023-04-09T02:44:39;100890.66;;;7.30;100.00
18022;BME280;9136;48.822;7.966;2023-04-09T02:47:28;100945.38;;;7.51;100.00
18022;BME280;9136;48.822;7.966;2023-04-09T02:50:16;100890.69;;;7.27;100.00
18022;BME280;9136;48.822;7.966;2023-04-09T02:53:04;100922.78;;;7.42;100.00
18022;BME280;9136;48.822;7.966;2023-04-09T02:55:53;100904.63;;;7.29;100.00
18022;BME280;9136;48.822;7.966;2023-04-09T02:58:42;100881.22;;;7.12;100.00
18022;BME280;9136;48.822;7.966;2023-04-09T03:01:30;100903.75;;;7.28;100.00
18022;BME280;9136;48.822;7.966;2023-04-09T03:04:18;100915.00;;;7.36;100.00
18022;BME280;9136;48.822;7.966;2023-04-09T03:07:05;100885.50;;;7.21;100.00
18022;BME280;9136;48.822;7.966;2023-04-09T03:09:54;100902.81;;;7.37;100.00
18022;BME280;9136;48.822;7.966;2023-04-09T03:12:43;100893.28;;;7.30;100.00
18022;BME280;9136;48.822;7.966;2023-04-09T03:15:33;100916.59;;;7.53;100.00
18022;BME280;9136;48.822;7.966;2023-04-09T03:18:22;100868.06;;;7.26;100.00
18022;BME280;9136;48.822;7.966;2023-04-09T03:21:12;100869.78;;;7.27;100.00
18022;BME280;9136;48.822;7.966;2023-04-09T03:24:00;100875.84;;;7.30;100.00
18022;BME280;9136;48.822;7.966;2023-04-09T03:26:50;100894.13;;;7.35;100.00
18022;BME280;9136;48.822;7.966;2023-04-09T03:29:39;100887.22;;;7.23;100.00
18022;BME280;9136;48.822;7.966;2023-04-09T03:32:27;100895.13;;;7.17;100.00
18022;BME280;9136;48.822;7.966;2023-04-09T03:35:15;100880.41;;;7.07;100.00
18022;BME280;9136;48.822;7.966;2023-04-09T03:38:03;100901.28;;;7.10;100.00
18022;BME280;9136;48.822;7.966;2023-04-09T03:40:50;100887.41;;;7.02;100.00
18022;BME280;9136;48.822;7.966;2023-04-09T03:43:42;100898.72;;;7.01;100.00
18022;BME280;9136;48.822;7.966;2023-04-09T03:46:32;100877.09;;;6.83;100.00
18022;BME280;9136;48.822;7.966;2023-04-09T03:49:20;100901.41;;;6.90;100.00
18022;BME280;9136;48.822;7.966;2023-04-09T03:52:09;100870.19;;;6.72;100.00
18022;BME280;9136;48.822;7.966;2023-04-09T03:54:57;100896.25;;;6.85;100.00
18022;BME280;9136;48.822;7.966;2023-04-09T03:57:45;100878.09;;;6.67;100.00
18022;BME280;9136;48.822;7.966;2023-04-09T04:00:33;100918.03;;;6.75;100.00
18022;BME280;9136;48.822;7.966;2023-04-09T04:03:23;100881.66;;;6.46;100.00
18022;BME280;9136;48.822;7.966;2023-04-09T04:06:12;100905.06;;;6.66;100.00
18022;BME280;9136;48.822;7.966;2023-04-09T04:09:02;100891.22;;;6.52;100.00
18022;BME280;9136;48.822;7.966;2023-04-09T04:11:50;100877.34;;;6.41;100.00
18022;BME280;9136;48.822;7.966;2023-04-09T04:14:37;100899.88;;;6.54;100.00
18022;BME280;9136;48.822;7.966;2023-04-09T04:17:27;100873.00;;;6.35;100.00
18022;BME280;9136;48.822;7.966;2023-04-09T04:20:18;100893.88;;;6.40;100.00
18022;BME280;9136;48.822;7.966;2023-04-09T04:23:05;100884.34;;;6.32;100.00
18022;BME280;9136;48.822;7.966;2023-04-09T04:25:53;100913.03;;;6.34;100.00
18022;BME280;9136;48.822;7.966;2023-04-09T04:28:45;100886.16;;;6.14;100.00
18022;BME280;9136;48.822;7.966;2023-04-09T04:31:33;100891.34;;;6.17;100.00
18022;BME280;9136;48.822;7.966;2023-04-09T04:34:23;100912.22;;;6.24;100.00
18022;BME280;9136;48.822;7.966;2023-04-09T04:37:13;100910.50;;;6.19;100.00
18022;BME280;9136;48.822;7.966;2023-04-09T04:40:02;100911.34;;;6.22;100.00
18022;BME280;9136;48.822;7.966;2023-04-09T04:42:54;100874.91;;;5.96;100.00
18022;BME280;9136;48.822;7.966;2023-04-09T04:45:42;100899.25;;;5.95;100.00
18022;BME280;9136;48.822;7.966;2023-04-09T04:48:30;100910.53;;;6.05;100.00
18022;BME280;9136;48.822;7.966;2023-04-09T04:51:18;100893.19;;;5.89;100.00
18022;BME280;9136;48.822;7.966;2023-04-09T04:54:07;100883.63;;;5.95;100.00
18022;BME280;9136;48.822;7.966;2023-04-09T04:56:55;100899.25;;;5.86;100.00
18022;BME280;9136;48.822;7.966;2023-04-09T04:59:43;100889.72;;;5.81;100.00
18022;BME280;9136;48.822;7.966;2023-04-09T05:02:31;100891.44;;;5.79;100.00
18022;BME280;9136;48.822;7.966;2023-04-09T05:05:19;100900.16;;;5.81;100.00
18022;BME280;9136;48.822;7.966;2023-04-09T05:08:15;100918.41;;;5.81;100.00
18022;BME280;9136;48.822;7.966;2023-04-09T05:11:12;100914.06;;;5.75;100.00
18022;BME280;9136;48.822;7.966;2023-04-09T05:14:02;100919.28;;;5.70;100.00
18022;BME280;9136;48.822;7.966;2023-04-09T05:16:51;100917.53;;;5.80;100.00
18022;BME280;9136;48.822;7.966;2023-04-09T05:19:39;100898.44;;;5.64;100.00
18022;BME280;9136;48.822;7.966;2023-04-09T05:22:30;100910.59;;;5.65;100.00
18022;BME280;9136;48.822;7.966;2023-04-09T05:25:22;100933.16;;;5.86;100.00
18022;BME280;9136;48.822;7.966;2023-04-09T05:28:14;100912.31;;;5.74;100.00
18022;BME280;9136;48.822;7.966;2023-04-09T05:31:03;100919.25;;;5.83;100.00
18022;BME280;9136;48.822;7.966;2023-04-09T05:33:52;100909.72;;;5.75;100.00
18022;BME280;9136;48.822;7.966;2023-04-09T05:36:42;100934.00;;;5.88;100.00
18022;BME280;9136;48.822;7.966;2023-04-09T05:39:31;100936.63;;;5.96;100.00
18022;BME280;9136;48.822;7.966;2023-04-09T05:42:19;100933.16;;;6.03;100.00
18022;BME280;9136;48.822;7.966;2023-04-09T05:45:10;100919.25;;;5.95;100.00
18022;BME280;9136;48.822;7.966;2023-04-09T05:47:58;100911.41;;;5.98;100.00
18022;BME280;9136;48.822;7.966;2023-04-09T05:50:50;100919.25;;;6.09;100.00
18022;BME280;9136;48.822;7.966;2023-04-09T05:53:40;100935.72;;;6.21;100.00
18022;BME280;9136;48.822;7.966;2023-04-09T05:56:31;100914.88;;;6.09;100.00
18022;BME280;9136;48.822;7.966;2023-04-09T05:59:22;100940.03;;;6.28;100.00
18022;BME280;9136;48.822;7.966;2023-04-09T06:02:12;100948.69;;;6.34;100.00
18022;BME280;9136;48.822;7.966;2023-04-09T06:05:02;100947.81;;;6.35;100.00
18022;BME280;9136;48.822;7.966;2023-04-09T06:07:51;100962.53;;;6.54;100.00
18022;BME280;9136;48.822;7.966;2023-04-09T06:10:38;100943.41;;;6.53;100.00
18022;BME280;9136;48.822;7.966;2023-04-09T06:13:28;100928.66;;;6.49;100.00
18022;BME280;9136;48.822;7.966;2023-04-09T06:16:18;100930.34;;;6.58;100.00
18022;BME280;9136;48.822;7.966;2023-04-09T06:19:07;100925.13;;;6.56;100.00
18022;BME280;9136;48.822;7.966;2023-04-09T06:21:57;100942.44;;;6.76;100.00
18022;BME280;9136;48.822;7.966;2023-04-09T06:24:48;100933.72;;;6.72;100.00
18022;BME280;9136;48.822;7.966;2023-04-09T06:27:37;100944.94;;;6.93;100.00
18022;BME280;9136;48.822;7.966;2023-04-09T06:30:27;100928.41;;;6.89;100.00
18022;BME280;9136;48.822;7.966;2023-04-09T06:33:17;100961.34;;;7.13;100.00
18022;BME280;9136;48.822;7.966;2023-04-09T06:36:15;100942.28;;;7.00;100.00
18022;BME280;9136;48.822;7.966;2023-04-09T06:39:03;100946.50;;;7.20;100.00
18022;BME280;9136;48.822;7.966;2023-04-09T06:41:51;100955.06;;;7.38;100.00
18022;BME280;9136;48.822;7.966;2023-04-09T06:44:42;100935.88;;;7.39;100.00
18022;BME280;9136;48.822;7.966;2023-04-09T06:47:32;100929.78;;;7.43;100.00
18022;BME280;9136;48.822;7.966;2023-04-09T06:50:21;100941.88;;;7.52;100.00
18022;BME280;9136;48.822;7.966;2023-04-09T06:53:13;100944.41;;;7.60;100.00
18022;BME280;9136;48.822;7.966;2023-04-09T06:56:06;100946.03;;;7.74;100.00
18022;BME280;9136;48.822;7.966;2023-04-09T06:58:53;100951.97;;;7.92;100.00
18022;BME280;9136;48.822;7.966;2023-04-09T07:01:41;100952.75;;;8.01;100.00
18022;BME280;9136;48.822;7.966;2023-04-09T07:04:34;100966.50;;;8.20;100.00
18022;BME280;9136;48.822;7.966;2023-04-09T07:07:23;100962.94;;;8.26;100.00
18022;BME280;9136;48.822;7.966;2023-04-09T07:10:14;100960.06;;;8.49;100.00
18022;BME280;9136;48.822;7.966;2023-04-09T07:13:02;100947.00;;;8.47;100.00
18022;BME280;9136;48.822;7.966;2023-04-09T07:15:53;100977.31;;;8.67;100.00
18022;BME280;9136;48.822;7.966;2023-04-09T07:18:42;100939.06;;;8.55;100.00
18022;BME280;9136;48.822;7.966;2023-04-09T07:21:30;100945.06;;;8.63;100.00
18022;BME280;9136;48.822;7.966;2023-04-09T07:24:21;100983.03;;;8.96;100.00
18022;BME280;9136;48.822;7.966;2023-04-09T07:27:17;100950.72;;;8.96;100.00
18022;BME280;9136;48.822;7.966;2023-04-09T07:30:10;100961.88;;;9.10;100.00
18022;BME280;9136;48.822;7.966;2023-04-09T07:33:01;100948.06;;;8.99;100.00
18022;BME280;9136;48.822;7.966;2023-04-09T07:35:49;100963.63;;;9.11;100.00
18022;BME280;9136;48.822;7.966;2023-04-09T07:38:39;100968.72;;;9.20;100.00
18022;BME280;9136;48.822;7.966;2023-04-09T07:41:29;100981.66;;;9.31;100.00
18022;BME280;9136;48.822;7.966;2023-04-09T07:44:18;100965.19;;;9.23;100.00
18022;BME280;9136;48.822;7.966;2023-04-09T07:47:10;100968.56;;;9.31;100.00
18022;BME280;9136;48.822;7.966;2023-04-09T07:49:58;100978.69;;;9.52;100.00
18022;BME280;9136;48.822;7.966;2023-04-09T07:52:47;100990.72;;;9.67;100.00
18022;BME280;9136;48.822;7.966;2023-04-09T07:55:35;100966.16;;;9.69;100.00
18022;BME280;9136;48.822;7.966;2023-04-09T07:58:26;100997.16;;;9.98;100.00
18022;BME280;9136;48.822;7.966;2023-04-09T08:01:18;100974.38;;;9.99;100.00
18022;BME280;9136;48.822;7.966;2023-04-09T08:04:12;100978.75;;;10.00;100.00
18022;BME280;9136;48.822;7.966;2023-04-09T08:07:01;100975.19;;;10.04;100.00
18022;BME280;9136;48.822;7.966;2023-04-09T08:09:51;100984.41;;;10.26;100.00
18022;BME280;9136;48.822;7.966;2023-04-09T08:12:40;100975.75;;;10.20;100.00
18022;BME280;9136;48.822;7.966;2023-04-09T08:15:33;100995.59;;;10.36;100.00
18022;BME280;9136;48.822;7.966;2023-04-09T08:22:02;100997.53;;;10.71;100.00
18022;BME280;9136;48.822;7.966;2023-04-09T08:24:54;100967.94;;;10.63;100.00
18022;BME280;9136;48.822;7.966;2023-04-09T08:27:43;100974.75;;;10.70;100.00
18022;BME280;9136;48.822;7.966;2023-04-09T08:30:37;100971.88;;;10.82;100.00
18022;BME280;9136;48.822;7.966;2023-04-09T08:33:25;100999.44;;;11.05;100.00
18022;BME280;9136;48.822;7.966;2023-04-09T08:36:17;100975.81;;;11.03;100.00
18022;BME280;9136;48.822;7.966;2023-04-09T08:39:10;100970.38;;;11.11;100.00
18022;BME280;9136;48.822;7.966;2023-04-09T08:41:59;100983.88;;;11.33;100.00
18022;BME280;9136;48.822;7.966;2023-04-09T08:44:49;100998.34;;;11.52;97.30
18022;BME280;9136;48.822;7.966;2023-04-09T08:51:33;100963.34;;;11.49;91.16
18022;BME280;9136;48.822;7.966;2023-04-09T08:54:27;100979.06;;;11.52;89.89
18022;BME280;9136;48.822;7.966;2023-04-09T08:57:18;100968.22;;;11.64;90.76
18022;BME280;9136;48.822;7.966;2023-04-09T09:00:10;100994.03;;;11.85;95.68
18022;BME280;9136;48.822;7.966;2023-04-09T09:03:04;100984.25;;;11.90;92.87
18022;BME280;9136;48.822;7.966;2023-04-09T09:05:56;100974.72;;;11.85;89.55
18022;BME280;9136;48.822;7.966;2023-04-09T09:09:07;100982.81;;;12.11;86.17
18022;BME280;9136;48.822;7.966;2023-04-09T09:12:02;100995.19;;;12.40;88.87
18022;BME280;9136;48.822;7.966;2023-04-09T09:14:50;100974.94;;;12.42;88.21
18022;BME280;9136;48.822;7.966;2023-04-09T09:17:52;100972.09;;;12.50;86.31
18022;BME280;9136;48.822;7.966;2023-04-09T09:20:44;100984.03;;;12.61;89.48
18022;BME280;9136;48.822;7.966;2023-04-09T09:23:34;100990.69;;;12.44;79.16
18022;BME280;9136;48.822;7.966;2023-04-09T09:26:31;100984.13;;;12.58;95.18
18022;BME280;9136;48.822;7.966;2023-04-09T09:29:29;100991.41;;;12.80;80.29
18022;BME280;9136;48.822;7.966;2023-04-09T09:32:21;100990.59;;;13.07;69.09
18022;BME280;9136;48.822;7.966;2023-04-09T09:35:10;100999.06;;;13.17;63.77
18022;BME280;9136;48.822;7.966;2023-04-09T09:38:02;100987.53;;;12.92;60.26
18022;BME280;9136;48.822;7.966;2023-04-09T09:40:56;100983.66;;;12.74;59.29
18022;BME280;9136;48.822;7.966;2023-04-09T09:43:44;100971.72;;;12.92;69.80
18022;BME280;9136;48.822;7.966;2023-04-09T09:46:40;100989.94;;;13.29;68.07
18022;BME280;9136;48.822;7.966;2023-04-09T09:49:31;100959.06;;;13.32;77.84
18022;BME280;9136;48.822;7.966;2023-04-09T09:52:24;100974.03;;;13.58;60.49
18022;BME280;9136;48.822;7.966;2023-04-09T09:55:20;100979.28;;;14.11;60.06
18022;BME280;9136;48.822;7.966;2023-04-09T09:58:18;100964.66;;;14.51;56.28
18022;BME280;9136;48.822;7.966;2023-04-09T10:01:16;100954.00;;;14.27;58.33
18022;BME280;9136;48.822;7.966;2023-04-09T10:04:15;100960.72;;;14.13;60.49
18022;BME280;9136;48.822;7.966;2023-04-09T10:07:11;100970.44;;;14.12;54.05
18022;BME280;9136;48.822;7.966;2023-04-09T10:10:16;100975.13;;;14.77;65.81
18022;BME280;9136;48.822;7.966;2023-04-09T10:13:47;100965.44;;;15.43;58.13
18022;BME280;9136;48.822;7.966;2023-04-09T10:16:21;100957.63;;;15.62;52.32
18022;BME280;9136;48.822;7.966;2023-04-09T10:19:11;100966.78;;;15.32;54.20
18022;BME280;9136;48.822;7.966;2023-04-09T10:22:06;100950.47;;;14.77;58.72
18022;BME280;9136;48.822;7.966;2023-04-09T10:25:10;100949.47;;;14.79;53.20
18022;BME280;9136;48.822;7.966;2023-04-09T10:28:16;100947.56;;;15.05;57.47
18022;BME280;9136;48.822;7.966;2023-04-09T10:31:09;100964.94;;;15.12;52.42
18022;BME280;9136;48.822;7.966;2023-04-09T10:34:19;100963.63;;;15.44;52.31
18022;BME280;9136;48.822;7.966;2023-04-09T10:37:14;100955.59;;;15.69;52.70
18022;BME280;9136;48.822;7.966;2023-04-09T10:40:17;100951.94;;;15.92;49.58
18022;BME280;9136;48.822;7.966;2023-04-09T10:43:08;100934.38;;;16.10;48.78
18022;BME280;9136;48.822;7.966;2023-04-09T10:46:27;100949.50;;;15.87;46.16
18022;BME280;9136;48.822;7.966;2023-04-09T10:49:35;100947.09;;;16.01;43.74
18022;BME280;9136;48.822;7.966;2023-04-09T10:52:28;100933.94;;;16.00;44.57
18022;BME280;9136;48.822;7.966;2023-04-09T10:55:30;100925.16;;;16.57;44.98
18022;BME280;9136;48.822;7.966;2023-04-09T10:58:37;100941.03;;;18.70;40.73
18022;BME280;9136;48.822;7.966;2023-04-09T11:01:27;100918.91;;;20.21;37.81
18022;BME280;9136;48.822;7.966;2023-04-09T11:04:19;100938.84;;;19.85;35.92
18022;BME280;9136;48.822;7.966;2023-04-09T11:07:16;100939.75;;;21.00;35.41
18022;BME280;9136;48.822;7.966;2023-04-09T11:10:08;100944.44;;;20.11;35.50
18022;BME280;9136;48.822;7.966;2023-04-09T11:13:04;100931.94;;;18.90;36.28
18022;BME280;9136;48.822;7.966;2023-04-09T11:15:59;100938.44;;;17.67;37.59
18022;BME280;9136;48.822;7.966;2023-04-09T11:18:49;100933.72;;;17.02;38.75
18022;BME280;9136;48.822;7.966;2023-04-09T11:21:41;100925.28;;;17.47;38.77
18022;BME280;9136;48.822;7.966;2023-04-09T11:24:43;100913.09;;;17.95;38.29
18022;BME280;9136;48.822;7.966;2023-04-09T11:27:39;100936.34;;;18.75;36.98
18022;BME280;9136;48.822;7.966;2023-04-09T11:30:35;100927.22;;;20.59;34.39
18022;BME280;9136;48.822;7.966;2023-04-09T11:33:32;100918.06;;;22.85;32.04
18022;BME280;9136;48.822;7.966;2023-04-09T11:36:22;100921.78;;;22.08;31.83
18022;BME280;9136;48.822;7.966;2023-04-09T11:39:10;100942.34;;;20.30;33.57
18022;BME280;9136;48.822;7.966;2023-04-09T11:42:02;100926.88;;;22.75;33.33
18022;BME280;9136;48.822;7.966;2023-04-09T11:44:54;100933.69;;;23.76;31.36
18022;BME280;9136;48.822;7.966;2023-04-09T11:47:49;100929.72;;;24.04;28.79
18022;BME280;9136;48.822;7.966;2023-04-09T11:50:48;100934.84;;;23.37;30.83
18022;BME280;9136;48.822;7.966;2023-04-09T11:53:38;100913.09;;;22.55;32.27
18022;BME280;9136;48.822;7.966;2023-04-09T11:56:29;100917.69;;;21.90;30.66
18022;BME280;9136;48.822;7.966;2023-04-09T11:59:23;100923.78;;;20.28;34.48
18022;BME280;9136;48.822;7.966;2023-04-09T12:02:16;100897.16;;;20.70;36.67
18022;BME280;9136;48.822;7.966;2023-04-09T12:05:10;100914.81;;;21.93;32.57
18022;BME280;9136;48.822;7.966;2023-04-09T12:08:03;100906.06;;;24.32;28.61
18022;BME280;9136;48.822;7.966;2023-04-09T12:10:56;100910.03;;;22.23;30.44
18022;BME280;9136;48.822;7.966;2023-04-09T12:13:44;100924.56;;;22.45;31.46
18022;BME280;9136;48.822;7.966;2023-04-09T12:16:38;100935.31;;;22.81;31.90
18022;BME280;9136;48.822;7.966;2023-04-09T12:19:26;100911.06;;;24.14;29.85
18022;BME280;9136;48.822;7.966;2023-04-09T12:22:16;100899.97;;;22.40;30.72
18022;BME280;9136;48.822;7.966;2023-04-09T12:25:05;100899.28;;;23.22;30.14
18022;BME280;9136;48.822;7.966;2023-04-09T12:27:53;100912.38;;;25.41;27.07
18022;BME280;9136;48.822;7.966;2023-04-09T12:30:42;100906.38;;;25.69;26.31
18022;BME280;9136;48.822;7.966;2023-04-09T12:33:38;100910.47;;;22.92;29.56
18022;BME280;9136;48.822;7.966;2023-04-09T12:36:28;100911.78;;;21.05;31.34
18022;BME280;9136;48.822;7.966;2023-04-09T12:39:20;100908.25;;;24.04;29.20
18022;BME280;9136;48.822;7.966;2023-04-09T12:42:09;100906.59;;;25.99;26.86
18022;BME280;9136;48.822;7.966;2023-04-09T12:44:59;100898.50;;;27.00;26.28
18022;BME280;9136;48.822;7.966;2023-04-09T12:47:47;100909.91;;;27.13;24.97
18022;BME280;9136;48.822;7.966;2023-04-09T12:50:39;100904.56;;;27.71;23.97
18022;BME280;9136;48.822;7.966;2023-04-09T12:53:30;100911.13;;;28.06;23.57
18022;BME280;9136;48.822;7.966;2023-04-09T12:56:20;100896.34;;;26.74;24.07
18022;BME280;9136;48.822;7.966;2023-04-09T12:59:08;100877.50;;;22.30;30.82
18022;BME280;9136;48.822;7.966;2023-04-09T13:01:58;100873.06;;;20.14;35.94
18022;BME280;9136;48.822;7.966;2023-04-09T13:04:46;100873.03;;;19.86;34.50
18022;BME280;9136;48.822;7.966;2023-04-09T13:07:38;100882.69;;;19.88;33.90
18022;BME280;9136;48.822;7.966;2023-04-09T13:10:29;100880.09;;;19.27;35.17
18022;BME280;9136;48.822;7.966;2023-04-09T13:13:18;100867.56;;;18.18;37.19
18022;BME280;9136;48.822;7.966;2023-04-09T13:16:07;100863.44;;;20.54;38.07
18022;BME280;9136;48.822;7.966;2023-04-09T13:18:57;100896.84;;;23.19;29.79
18022;BME280;9136;48.822;7.966;2023-04-09T13:21:45;100889.09;;;23.62;29.37
18022;BME280;9136;48.822;7.966;2023-04-09T13:24:36;100868.59;;;22.78;29.08
18022;BME280;9136;48.822;7.966;2023-04-09T13:27:26;100868.50;;;23.04;30.61
18022;BME280;9136;48.822;7.966;2023-04-09T13:30:16;100870.31;;;20.58;33.25
18022;BME280;9136;48.822;7.966;2023-04-09T13:33:04;100864.69;;;20.20;34.20
18022;BME280;9136;48.822;7.966;2023-04-09T13:35:51;100853.47;;;21.90;30.20
18022;BME280;9136;48.822;7.966;2023-04-09T13:38:42;100855.53;;;22.24;31.42
18022;BME280;9136;48.822;7.966;2023-04-09T13:41:35;100851.78;;;21.89;31.78
18022;BME280;9136;48.822;7.966;2023-04-09T13:44:23;100854.06;;;22.20;30.14
18022;BME280;9136;48.822;7.966;2023-04-09T13:47:12;100857.00;;;21.65;30.91
18022;BME280;9136;48.822;7.966;2023-04-09T13:50:01;100864.22;;;22.15;29.56
18022;BME280;9136;48.822;7.966;2023-04-09T13:52:49;100860.59;;;21.11;32.51
18022;BME280;9136;48.822;7.966;2023-04-09T13:55:38;100876.59;;;20.29;33.48
18022;BME280;9136;48.822;7.966;2023-04-09T13:58:28;100856.78;;;19.00;33.59
18022;BME280;9136;48.822;7.966;2023-04-09T14:01:16;100847.59;;;17.25;37.38
18022;BME280;9136;48.822;7.966;2023-04-09T14:04:04;100847.50;;;16.54;39.52
18022;BME280;9136;48.822;7.966;2023-04-09T14:06:52;100839.69;;;18.57;38.20
18022;BME280;9136;48.822;7.966;2023-04-09T14:09:40;100834.97;;;20.12;33.52
18022;BME280;9136;48.822;7.966;2023-04-09T14:12:28;100838.25;;;19.59;33.77
18022;BME280;9136;48.822;7.966;2023-04-09T14:15:17;100834.69;;;19.44;34.51
18022;BME280;9136;48.822;7.966;2023-04-09T14:18:05;100839.16;;;21.26;32.99
18022;BME280;9136;48.822;7.966;2023-04-09T14:20:53;100819.34;;;22.06;31.15
18022;BME280;9136;48.822;7.966;2023-04-09T14:23:41;100843.13;;;22.23;30.24
18022;BME280;9136;48.822;7.966;2023-04-09T14:26:29;100824.13;;;20.98;33.35
18022;BME280;9136;48.822;7.966;2023-04-09T14:29:17;100823.13;;;19.88;34.44
18022;BME280;9136;48.822;7.966;2023-04-09T14:32:06;100793.75;;;20.59;32.35
18022;BME280;9136;48.822;7.966;2023-04-09T14:34:54;100816.75;;;20.05;33.50
18022;BME280;9136;48.822;7.966;2023-04-09T14:37:42;100806.84;;;20.49;33.47
18022;BME280;9136;48.822;7.966;2023-04-09T14:40:32;100794.78;;;20.01;33.37
18022;BME280;9136;48.822;7.966;2023-04-09T14:43:20;100797.25;;;19.76;31.92
18022;BME280;9136;48.822;7.966;2023-04-09T14:46:10;100813.94;;;19.79;33.84
18022;BME280;9136;48.822;7.966;2023-04-09T14:48:59;100816.03;;;19.44;34.10
18022;BME280;9136;48.822;7.966;2023-04-09T14:51:47;100814.09;;;19.02;34.81
18022;BME280;9136;48.822;7.966;2023-04-09T14:54:36;100805.34;;;18.21;36.51
18022;BME280;9136;48.822;7.966;2023-04-09T14:57:26;100810.03;;;17.50;37.79
18022;BME280;9136;48.822;7.966;2023-04-09T15:00:14;100808.38;;;17.82;37.01
18022;BME280;9136;48.822;7.966;2023-04-09T15:03:03;100807.88;;;18.24;38.31
18022;BME280;9136;48.822;7.966;2023-04-09T15:05:53;100806.34;;;18.67;35.94
18022;BME280;9136;48.822;7.966;2023-04-09T15:08:41;100792.50;;;18.45;37.39
18022;BME280;9136;48.822;7.966;2023-04-09T15:11:29;100782.19;;;18.23;37.94
18022;BME280;9136;48.822;7.966;2023-04-09T15:14:18;100781.41;;;18.05;35.73